ADDS METAR Data INFO
IDs: Format: Raw Decoded Include TAF

Data at: 0101 UTC 21 Oct 2017

KHIB 210053Z AUTO 16009KT 10SM CLR 19/07 A2967 RMK AO2 SLP052 T01890072
KHIB 202353Z AUTO 16006KT 10SM CLR 19/07 A2966 RMK AO2 SLP051 T01940072 10233 20194 55007
KHIB 202253Z AUTO 15007KT 10SM CLR 20/08 A2966 RMK AO2 SLP050 T02000083
KHIB 202153Z AUTO 17008G17KT 10SM CLR 22/09 A2967 RMK AO2 SLP053 T02170089
KHIB 202053Z AUTO 16008G16KT 10SM CLR 22/09 A2968 RMK AO2 SLP057 T02220089 56020
KHIB 201953Z AUTO 17012G19KT 10SM CLR 23/09 A2970 RMK AO2 SLP061 T02280089
KHIB 201853Z AUTO 19009G20KT 160V230 10SM CLR 22/08 A2972 RMK AO2 SLP068 T02220083
KHIB 201753Z AUTO 18012G18KT 140V210 10SM CLR 21/09 A2975 RMK AO2 SLP078 T02060089 10206 20011 58016
KHIB 201653Z AUTO 17011G17KT 10SM CLR 19/09 A2977 RMK AO2 SLP085 T01890089
KHIB 201553Z AUTO 17010KT 10SM CLR 17/09 A2978 RMK AO2 SLP093 T01670094
KHIB 201453Z AUTO 15005KT 10SM CLR 13/08 A2979 RMK AO2 SLP097 T01280083 58009
KHIB 201353Z AUTO 12003KT 10SM CLR 07/05 A2981 RMK AO2 SLP104 T00720050
KHIB 201253Z AUTO 00000KT 10SM CLR 02/01 A2981 RMK AO2 SLP108 T00170011
KHIB 201153Z AUTO 00000KT 10SM CLR 01/01 A2982 RMK AO2 SLP108 T00110006 10028 20006 58005
KHIB 201053Z AUTO 00000KT 10SM CLR 01/01 A2983 RMK AO2 SLP108 T00110006
KHIB 200953Z AUTO 00000KT 10SM CLR 01/00 A2984 RMK AO2 SLP111 T00110000
KHIB 200853Z AUTO 00000KT 10SM CLR 01/00 A2984 RMK AO2 SLP112 T00110000 58006
KHIB 200753Z AUTO 00000KT 10SM CLR 02/00 A2984 RMK AO2 SLP113 T00170000
KHIB 200653Z AUTO 00000KT 10SM CLR 02/00 A2985 RMK AO2 SLP116 T00220000
KHIB 200553Z AUTO 00000KT 10SM CLR 02/01 A2986 RMK AO2 SLP118 T00220006 10156 20022 401940017 58006
KHIB 200453Z AUTO 16003KT 10SM CLR 04/01 A2986 RMK AO2 SLP120 T00440006
KHIB 200353Z AUTO 00000KT 10SM CLR 03/01 A2987 RMK AO2 SLP126 T00330011
KHIB 200253Z AUTO 00000KT 10SM CLR 06/01 A2988 RMK AO2 SLP128 T00560011 58000
KHIB 200153Z AUTO 15003KT 10SM CLR 06/01 A2988 RMK AO2 SLP130 T00610011
KHIB 200053Z AUTO 13003KT 10SM CLR 09/01 A2988 RMK AO2 SLP131 T00890006
KHIB 192353Z AUTO 19003KT 10SM CLR 16/00 A2988 RMK AO2 SLP125 T01560000 10194 20156 55002
KHIB 192253Z AUTO 20005KT 10SM CLR 17/00 A2987 RMK AO2 SLP121 T01720000
KHIB 192153Z AUTO 19011G19KT 10SM CLR 19/00 A2987 RMK AO2 SLP120 T01890000
KHIB 192053Z AUTO 20011G14KT 10SM CLR 18/M01 A2988 RMK AO2 SLP125 T01831006 56025
KHIB 191953Z AUTO 21008G17KT 10SM CLR 19/M01 A2990 RMK AO2 SLP130 T01891006
KHIB 191853Z AUTO VRB04G15KT 10SM CLR 18/M02 A2994 RMK AO2 SLP142 T01831017
KHIB 191753Z AUTO 22007KT 190V250 10SM CLR 16/M02 A2996 RMK AO2 SLP151 T01611022 10161 20017 58005
KHIB 191653Z AUTO VRB06KT 10SM CLR 14/M02 A2998 RMK AO2 SLP160 T01441022
KHIB 191553Z AUTO VRB05KT 10SM CLR 12/M03 A2999 RMK AO2 SLP164 T01171033
KHIB 191453Z AUTO 23003KT 10SM CLR 08/M02 A2998 RMK AO2 SLP160 T00831022 51012
KHIB 191353Z AUTO 00000KT 10SM CLR 04/M03 A2996 RMK AO2 SLP158 T00391028